createdAt,value
2022-11-27T00:04:46.134Z,2.00
2022-11-27T00:09:48.876Z,1.50
2022-11-27T00:14:55.598Z,2.25
2022-11-27T00:19:58.549Z,2.25
2022-11-27T00:25:01.425Z,3.50
2022-11-27T00:30:06.484Z,2.00
2022-11-27T00:35:10.110Z,2.25
2022-11-27T00:40:13.640Z,3.00
2022-11-27T00:45:17.897Z,3.00
2022-11-27T00:50:20.991Z,3.00
2022-11-27T00:55:23.967Z,3.00
2022-11-27T01:00:28.078Z,3.50
2022-11-27T01:05:30.804Z,3.00
2022-11-27T01:10:33.556Z,2.25
2022-11-27T01:15:37.736Z,2.00
2022-11-27T01:20:40.873Z,2.00
2022-11-27T01:25:43.601Z,3.00
2022-11-27T01:30:47.924Z,2.00
2022-11-27T01:35:58.104Z,2.25
2022-11-27T01:41:01.839Z,3.00
2022-11-27T01:46:07.267Z,2.00
2022-11-27T01:51:10.140Z,1.50
2022-11-27T01:56:13.195Z,3.00
2022-11-27T02:01:17.734Z,2.25
2022-11-27T02:06:20.584Z,3.00
2022-11-27T02:11:31.328Z,2.25
2022-11-27T02:16:47.788Z,2.50
2022-11-27T02:22:02.849Z,3.00
2022-11-27T02:27:34.609Z,1.75
2022-11-27T02:32:43.237Z,3.00
2022-11-27T02:37:50.528Z,1.25
2022-11-27T02:42:58.923Z,2.00
2022-11-27T02:48:05.755Z,2.00
2022-11-27T02:53:13.287Z,2.00
2022-11-27T02:58:21.197Z,2.00
2022-11-27T03:03:29.643Z,1.75
2022-11-27T03:08:38.396Z,2.00
2022-11-27T03:13:45.107Z,3.00
2022-11-27T03:18:59.963Z,3.00
2022-11-27T03:24:02.746Z,2.00
2022-11-27T03:29:10.891Z,2.25
2022-11-27T03:34:16.249Z,2.25
2022-11-27T03:39:20.239Z,3.00
2022-11-27T03:44:30.330Z,1.75
2022-11-27T03:49:48.945Z,2.00
2022-11-27T03:54:58.682Z,2.75
2022-11-27T04:00:04.965Z,2.50
2022-11-27T04:05:10.414Z,2.25
2022-11-27T04:10:13.855Z,2.00
2022-11-27T04:15:16.690Z,1.25
2022-11-27T04:20:20.910Z,2.25
2022-11-27T04:25:24.213Z,2.25
2022-11-27T04:30:26.954Z,3.00
2022-11-27T04:35:31.096Z,2.00
2022-11-27T04:40:33.894Z,2.00
2022-11-27T04:45:36.805Z,2.00
2022-11-27T04:50:40.990Z,2.00
2022-11-27T04:55:43.733Z,1.50
2022-11-27T05:00:46.541Z,2.00
2022-11-27T05:05:57.431Z,2.00
2022-11-27T05:11:02.143Z,2.00
2022-11-27T05:16:05.941Z,2.00
2022-11-27T05:21:10.112Z,2.00
2022-11-27T05:26:12.871Z,1.25
2022-11-27T05:31:15.719Z,1.25
2022-11-27T05:36:20.247Z,2.00
2022-11-27T05:41:23.050Z,2.00
2022-11-27T05:46:25.928Z,2.00
2022-11-27T05:51:30.137Z,2.50
2022-11-27T05:56:32.929Z,2.00
2022-11-27T06:01:35.672Z,1.50
2022-11-27T06:06:39.847Z,1.00
2022-11-27T06:11:43.136Z,1.00
2022-11-27T06:16:45.938Z,1.50
2022-11-27T06:21:50.106Z,2.75
2022-11-27T06:26:53.025Z,1.00
2022-11-27T06:31:55.919Z,1.00
2022-11-27T06:37:00.048Z,2.00
2022-11-27T06:42:03.246Z,1.00
2022-11-27T06:47:06.165Z,1.00
2022-11-27T06:52:10.324Z,2.00
2022-11-27T06:57:14.497Z,1.00
2022-11-27T07:02:17.359Z,1.50
2022-11-27T07:07:21.650Z,1.75
2022-11-27T07:12:24.532Z,1.25
2022-11-27T07:17:27.344Z,1.00
2022-11-27T07:22:33.127Z,2.00
2022-11-27T07:27:35.893Z,1.25
2022-11-27T07:32:38.868Z,2.00
2022-11-27T07:37:43.213Z,1.00
2022-11-27T07:42:46.374Z,1.75
2022-11-27T07:47:49.122Z,2.00
2022-11-27T07:52:53.361Z,3.00
2022-11-27T07:57:56.100Z,1.25
2022-11-27T08:02:59.867Z,1.00
2022-11-27T08:08:05.209Z,2.00
2022-11-27T08:13:08.920Z,1.00
2022-11-27T08:18:11.787Z,2.00
2022-11-27T08:23:15.992Z,2.00
2022-11-27T08:28:18.805Z,3.00
2022-11-27T08:33:21.562Z,3.00
2022-11-27T08:38:26.076Z,5.50
2022-11-27T08:43:29.969Z,5.50
2022-11-27T08:48:32.825Z,5.50
2022-11-27T08:53:37.581Z,7.25
2022-11-27T08:58:41.060Z,6.00
2022-11-27T09:03:44.948Z,5.00
2022-11-27T09:08:49.435Z,4.00
2022-11-27T09:13:52.533Z,4.00
2022-11-27T09:18:55.420Z,4.00
2022-11-27T09:24:01.773Z,5.00
2022-11-27T09:29:04.956Z,4.00
2022-11-27T09:34:07.732Z,4.00
2022-11-27T09:39:13.729Z,4.00
2022-11-27T09:44:28.743Z,4.00
2022-11-27T09:49:42.753Z,3.75
2022-11-27T09:54:54.894Z,4.00
2022-11-27T10:00:02.620Z,4.00
2022-11-27T10:05:18.672Z,4.00
2022-11-27T10:10:37.919Z,3.75
2022-11-27T10:15:48.942Z,3.50
2022-11-27T10:20:57.547Z,3.00
2022-11-27T10:26:08.785Z,3.00
2022-11-27T10:31:15.036Z,3.00
2022-11-27T10:36:23.070Z,4.25
2022-11-27T10:42:01.333Z,3.00
2022-11-27T10:47:02.441Z,3.00
2022-11-27T10:52:05.517Z,3.00
2022-11-27T10:57:51.837Z,3.00
2022-11-27T11:03:01.449Z,3.50
2022-11-27T11:08:06.133Z,2.25
2022-11-27T11:13:19.276Z,2.00
2022-11-27T11:18:24.575Z,3.00
2022-11-27T11:23:31.286Z,4.00
2022-11-27T11:28:43.160Z,3.00
2022-11-27T11:33:54.065Z,3.00
2022-11-27T11:38:57.621Z,3.00
2022-11-27T11:44:03.305Z,2.50
2022-11-27T11:49:08.976Z,3.00
2022-11-27T11:54:26.568Z,4.00
2022-11-27T11:59:45.323Z,4.50
2022-11-27T12:05:04.505Z,3.50
2022-11-27T12:10:16.555Z,4.00
2022-11-27T12:15:27.351Z,4.25
2022-11-27T12:20:50.157Z,4.00
2022-11-27T12:26:05.171Z,6.50
2022-11-27T12:31:22.992Z,6.00
2022-11-27T12:36:51.068Z,6.00
2022-11-27T12:42:01.721Z,6.25
2022-11-27T12:47:12.995Z,6.00
2022-11-27T12:52:20.079Z,6.25
2022-11-27T12:57:28.424Z,6.00
2022-11-27T13:02:37.252Z,6.00
2022-11-27T13:07:47.176Z,5.00
2022-11-27T13:12:57.763Z,5.25
2022-11-27T13:18:12.139Z,5.00
2022-11-27T13:23:15.087Z,4.75
2022-11-27T13:28:26.068Z,4.50
2022-11-27T13:33:38.690Z,6.00
2022-11-27T13:38:42.596Z,5.00
2022-11-27T13:43:48.272Z,5.00
2022-11-27T13:48:56.513Z,5.50
2022-11-27T13:54:13.201Z,5.25
2022-11-27T13:59:18.052Z,6.00
2022-11-27T14:04:22.212Z,6.00
2022-11-27T14:09:36.125Z,4.75
2022-11-27T14:14:39.263Z,5.00
2022-11-27T14:19:46.192Z,5.75
2022-11-27T14:24:56.058Z,5.00
2022-11-27T14:29:59.215Z,5.00
2022-11-27T14:35:03.503Z,4.00
2022-11-27T14:40:14.697Z,5.00
2022-11-27T14:45:20.898Z,4.00
2022-11-27T14:50:25.251Z,5.50
2022-11-27T14:55:34.420Z,4.75
2022-11-27T15:00:37.539Z,4.00
2022-11-27T15:05:41.714Z,4.00
2022-11-27T15:10:44.558Z,4.00
2022-11-27T15:15:57.263Z,4.50
2022-11-27T15:21:03.385Z,4.50
2022-11-27T15:26:14.961Z,4.00
2022-11-27T15:31:26.123Z,4.00
2022-11-27T15:36:38.317Z,4.25
2022-11-27T15:41:51.982Z,4.00
2022-11-27T15:46:57.301Z,5.00
2022-11-27T15:52:01.695Z,4.00
2022-11-27T15:57:04.839Z,4.00
2022-11-27T16:02:10.190Z,4.00
2022-11-27T16:07:16.390Z,4.00
2022-11-27T16:12:19.360Z,3.50
2022-11-27T16:17:22.143Z,3.00
2022-11-27T16:22:26.407Z,3.00
2022-11-27T16:27:29.264Z,4.00
2022-11-27T16:32:32.152Z,3.00
2022-11-27T16:37:36.266Z,4.25
2022-11-27T16:42:39.563Z,5.00
2022-11-27T16:47:42.504Z,5.50
2022-11-27T16:52:52.864Z,5.00
2022-11-27T16:57:57.414Z,6.00
2022-11-27T17:03:00.229Z,4.50
2022-11-27T17:08:04.538Z,6.25
2022-11-27T17:13:07.425Z,6.00
2022-11-27T17:18:11.406Z,5.25
2022-11-27T17:23:15.749Z,6.25
2022-11-27T17:28:18.748Z,5.33
2022-11-27T17:33:21.534Z,6.00
2022-11-27T17:38:25.726Z,6.00
2022-11-27T17:43:30.366Z,5.75
2022-11-27T17:48:34.858Z,6.75
2022-11-27T17:53:39.583Z,6.00
2022-11-27T17:58:44.475Z,6.00
2022-11-27T18:03:49.086Z,6.00
2022-11-27T18:08:55.255Z,6.50
2022-11-27T18:13:58.262Z,7.50
2022-11-27T18:19:04.663Z,6.50
2022-11-27T18:24:25.346Z,7.00
2022-11-27T18:29:28.530Z,7.00
2022-11-27T18:34:31.365Z,7.00
2022-11-27T18:39:36.380Z,6.00
2022-11-27T18:44:44.993Z,5.75
2022-11-27T18:49:49.010Z,6.00
2022-11-27T18:54:53.268Z,6.67
2022-11-27T18:59:56.257Z,7.00
2022-11-27T19:04:59.087Z,6.50
2022-11-27T19:10:03.471Z,7.00
2022-11-27T19:15:07.803Z,6.75
2022-11-27T19:20:11.549Z,6.00
2022-11-27T19:25:15.921Z,7.00
2022-11-27T19:30:19.408Z,7.75
2022-11-27T19:35:25.192Z,7.25
2022-11-27T19:40:32.756Z,7.00
2022-11-27T19:45:37.434Z,6.50
2022-11-27T19:50:40.481Z,7.75
2022-11-27T19:55:44.802Z,6.00
2022-11-27T20:00:48.151Z,6.75
2022-11-27T20:05:54.351Z,7.25
2022-11-27T20:11:01.901Z,7.00
2022-11-27T20:16:08.305Z,7.00
2022-11-27T20:21:14.366Z,7.75
2022-11-27T20:26:21.976Z,7.00
2022-11-27T20:31:26.815Z,6.25
2022-11-27T20:36:31.555Z,6.75
2022-11-27T20:41:35.875Z,6.50
2022-11-27T20:46:39.283Z,6.25
2022-11-27T20:51:42.189Z,6.25
2022-11-27T20:56:47.530Z,7.00
2022-11-27T21:01:50.508Z,7.50
2022-11-27T21:06:53.625Z,5.75
2022-11-27T21:11:57.767Z,7.00
2022-11-27T21:17:04.979Z,6.75
2022-11-27T21:22:09.959Z,7.25
2022-11-27T21:27:14.119Z,7.00
2022-11-27T21:32:18.133Z,6.25
2022-11-27T21:37:23.850Z,6.75
2022-11-27T21:42:29.200Z,6.00
2022-11-27T21:47:32.028Z,6.75
2022-11-27T21:52:35.554Z,6.00
2022-11-27T21:57:40.157Z,6.00
2022-11-27T22:02:44.530Z,6.50
2022-11-27T22:07:47.434Z,6.00
2022-11-27T22:12:51.847Z,5.50
2022-11-27T22:17:54.617Z,6.00
2022-11-27T22:22:57.747Z,6.00
2022-11-27T22:28:01.881Z,6.25
2022-11-27T22:33:07.245Z,6.25
2022-11-27T22:38:10.168Z,5.00
2022-11-27T22:43:14.327Z,5.75
2022-11-27T22:48:17.276Z,5.00
2022-11-27T22:53:20.197Z,6.00
2022-11-27T22:58:28.796Z,5.75
2022-11-27T23:03:33.222Z,6.00
2022-11-27T23:08:36.173Z,6.25
2022-11-27T23:13:42.828Z,5.00
2022-11-27T23:18:50.656Z,6.00
2022-11-27T23:23:53.561Z,6.00
2022-11-27T23:28:58.032Z,6.00
2022-11-27T23:34:02.374Z,5.00
2022-11-27T23:39:06.776Z,5.00
2022-11-27T23:44:10.976Z,5.00
2022-11-27T23:49:13.765Z,5.50
2022-11-27T23:54:16.591Z,4.50
2022-11-27T23:59:21.171Z,5.00
